Time;durP1;ratioP1;P1;durP2;ratioP2;P2;SDS_P1;SDS_P2;PMS_P1;PMS_P2;Temp;Humidity;BMP_temperature;BMP_pressure;BME280_temperature;BME280_humidity;BME280_pressure;Samples;Min_cycle;Max_cycle;Signal;HPM_P1;HPM_P2
2022/07/12 00:00:56;;;;;;;5.03;3.50;;;16.00;10.40;;;;;;5019342;28;34407;-77
2022/07/12 00:03:22;;;;;;;5.78;4.03;;;16.00;10.50;;;;;;5001242;28;34207;-77
2022/07/12 00:05:48;;;;;;;7.43;3.88;;;15.90;10.60;;;;;;4995741;28;34371;-77
2022/07/12 00:08:14;;;;;;;4.18;3.38;;;15.90;10.60;;;;;;5004764;28;35783;-77
2022/07/12 00:10:40;;;;;;;5.65;4.22;;;15.80;10.60;;;;;;5000676;28;34884;-77
2022/07/12 00:13:06;;;;;;;4.68;4.00;;;15.80;10.70;;;;;;5012750;28;34193;-77
2022/07/12 00:15:32;;;;;;;3.92;3.50;;;15.70;10.70;;;;;;5013333;28;34108;-77
2022/07/12 00:17:58;;;;;;;5.10;3.67;;;15.70;10.70;;;;;;4993690;28;35637;-77
2022/07/12 00:20:24;;;;;;;5.03;4.00;;;15.70;10.70;;;;;;5017425;28;34108;-77
2022/07/12 00:22:50;;;;;;;5.30;4.38;;;15.70;11.40;;;;;;4993044;28;34087;-77
2022/07/12 00:25:16;;;;;;;6.70;4.53;;;15.60;10.80;;;;;;5004317;28;34061;-76
2022/07/12 00:27:42;;;;;;;6.78;4.72;;;15.60;10.90;;;;;;5018848;28;35834;-77
2022/07/12 00:30:08;;;;;;;5.75;4.40;;;15.60;10.90;;;;;;5017020;28;34152;-77
2022/07/12 00:32:34;;;;;;;6.22;4.30;;;15.50;11.00;;;;;;5003411;28;34500;-78
2022/07/12 00:35:02;;;;;;;7.03;4.72;;;15.50;11.10;;;;;;5020780;28;34441;-77
2022/07/12 00:37:28;;;;;;;5.97;4.45;;;15.50;11.20;;;;;;5005229;28;35955;-77
2022/07/12 00:39:55;;;;;;;7.88;4.40;;;15.40;11.10;;;;;;5010586;28;34376;-77
2022/07/12 00:42:21;;;;;;;5.35;4.28;;;15.40;11.30;;;;;;5029537;28;34092;-77
2022/07/12 00:44:47;;;;;;;5.13;4.38;;;15.30;11.20;;;;;;4996853;28;34013;-76
2022/07/12 00:47:45;;;;;;;6.50;5.00;;;15.20;11.20;;;;;;5020628;28;36532;-76
2022/07/12 00:50:14;;;;;;;6.55;4.68;;;15.20;13.40;;;;;;4979538;28;34375;-77
2022/07/12 00:52:42;;;;;;;7.38;4.70;;;15.10;11.60;;;;;;4996951;28;34051;-77
2022/07/12 00:55:09;;;;;;;5.05;4.07;;;15.10;11.60;;;;;;4995863;28;34460;-77
2022/07/12 00:57:36;;;;;;;6.70;5.03;;;15.00;11.60;;;;;;4980123;28;35683;-77
2022/07/12 01:00:06;;;;;;;9.18;5.90;;;15.00;11.60;;;;;;4990986;28;34402;-77
2022/07/12 01:02:33;;;;;;;6.68;5.03;;;14.90;11.80;;;;;;5000670;27;34180;-76
2022/07/12 01:05:00;;;;;;;5.72;4.68;;;14.90;11.60;;;;;;4980359;28;34286;-77
2022/07/12 01:07:27;;;;;;;6.85;5.13;;;14.80;11.60;;;;;;4996802;28;35764;-76
2022/07/12 01:09:54;;;;;;;5.47;4.40;;;14.70;11.70;;;;;;5016410;28;34273;-77
2022/07/12 01:12:22;;;;;;;6.07;4.78;;;14.70;11.90;;;;;;4983161;28;34441;-77
2022/07/12 01:14:49;;;;;;;6.50;4.82;;;14.60;11.80;;;;;;4982814;28;34181;-77
2022/07/12 01:17:19;;;;;;;8.60;4.60;;;14.60;11.90;;;;;;4980464;28;35237;-77
2022/07/12 01:19:46;;;;;;;6.20;4.60;;;14.60;11.90;;;;;;5014657;28;35786;-77
2022/07/12 01:22:15;;;;;;;6.55;5.10;;;14.50;11.90;;;;;;5009326;28;34491;-77
2022/07/12 01:24:41;;;;;;;5.95;4.90;;;14.50;12.30;;;;;;5007310;28;34178;-77
2022/07/12 01:27:08;;;;;;;7.03;5.15;;;14.40;12.00;;;;;;5068189;28;35569;-77
2022/07/12 01:29:35;;;;;;;6.38;4.53;;;14.30;12.10;;;;;;5000734;28;34076;-77
2022/07/12 01:34:44;;;;;;;13.77;5.38;;;14.30;12.20;;;;;;5004189;28;34637;-77
2022/07/12 01:37:13;;;;;;;8.82;5.55;;;14.20;12.20;;;;;;5026694;28;36134;-77
2022/07/12 01:39:39;;;;;;;6.55;4.82;;;14.20;12.30;;;;;;5057968;28;34233;-77
2022/07/12 01:42:05;;;;;;;6.68;5.00;;;14.20;12.20;;;;;;5006463;28;34468;-77
2022/07/12 01:44:32;;;;;;;7.35;5.40;;;14.10;12.30;;;;;;4983752;28;34135;-77
2022/07/12 01:46:58;;;;;;;7.20;5.32;;;14.10;12.40;;;;;;5017808;28;35310;-77
2022/07/12 01:49:24;;;;;;;7.22;5.53;;;14.00;12.30;;;;;;5033338;28;34110;-77
2022/07/12 01:51:50;;;;;;;6.80;5.38;;;14.00;12.90;;;;;;5039156;28;34083;-77
2022/07/12 01:54:16;;;;;;;7.22;4.88;;;14.00;12.40;;;;;;5014163;28;34117;-77
2022/07/12 01:56:43;;;;;;;6.78;5.40;;;14.00;12.40;;;;;;5024646;28;35832;-77
2022/07/12 01:59:09;;;;;;;9.07;5.43;;;13.90;12.40;;;;;;5011914;28;34307;-77
2022/07/12 02:01:37;;;;;;;6.40;4.88;;;13.90;12.50;;;;;;5033738;28;34146;-77
2022/07/12 02:04:05;;;;;;;8.18;6.30;;;13.90;12.60;;;;;;5006716;28;34293;-77
2022/07/12 02:06:31;;;;;;;9.02;5.80;;;13.90;12.80;;;;;;4998025;28;35769;-77
2022/07/12 02:08:57;;;;;;;8.10;5.97;;;13.80;12.50;;;;;;5043659;28;34180;-77
2022/07/12 02:11:23;;;;;;;8.13;5.70;;;13.80;12.60;;;;;;5063045;28;34159;-77
2022/07/12 02:13:49;;;;;;;10.98;6.18;;;13.80;12.70;;;;;;5019932;27;34140;-77
2022/07/12 02:16:14;;;;;;;8.77;6.05;;;13.80;12.80;;;;;;5014467;28;35517;-77
2022/07/12 02:18:40;;;;;;;9.90;5.93;;;13.70;12.80;;;;;;5004201;28;33839;-78
2022/07/12 02:21:06;;;;;;;7.47;5.68;;;13.70;12.90;;;;;;5003359;28;34964;-77
2022/07/12 02:23:32;;;;;;;8.40;5.80;;;13.70;12.90;;;;;;4999713;28;34212;-77
2022/07/12 02:25:58;;;;;;;9.52;5.75;;;13.70;12.90;;;;;;4999822;28;36557;-77
2022/07/12 02:28:24;;;;;;;7.65;5.65;;;13.70;12.90;;;;;;4989973;28;34074;-77
2022/07/12 02:30:50;;;;;;;9.02;6.13;;;13.70;12.90;;;;;;5000570;28;34175;-77
2022/07/12 02:33:16;;;;;;;7.95;5.32;;;13.60;12.90;;;;;;5033286;27;34050;-77
2022/07/12 02:35:42;;;;;;;10.80;6.15;;;13.60;12.90;;;;;;5004278;28;34343;-77
2022/07/12 02:38:08;;;;;;;7.95;5.57;;;13.60;12.90;;;;;;5015661;28;34147;-78
2022/07/12 02:43:15;;;;;;;7.03;5.88;;;13.50;12.90;;;;;;5000761;28;34030;-77
2022/07/12 02:45:41;;;;;;;7.63;5.32;;;13.50;13.00;;;;;;4982662;28;35993;-77
2022/07/12 02:48:07;;;;;;;7.53;6.00;;;13.40;12.90;;;;;;5001078;28;33708;-77
2022/07/12 02:50:33;;;;;;;7.65;5.82;;;13.40;13.00;;;;;;4999503;28;34020;-77
2022/07/12 02:52:59;;;;;;;8.57;6.07;;;13.30;13.00;;;;;;5015621;28;34202;-78
2022/07/12 02:55:25;;;;;;;9.10;5.88;;;13.30;13.00;;;;;;4978312;28;36416;-77
2022/07/12 02:57:51;;;;;;;8.27;5.68;;;13.20;13.10;;;;;;5002580;28;34459;-77
2022/07/12 03:00:17;;;;;;;8.15;6.30;;;13.20;13.10;;;;;;4994550;28;34169;-77
2022/07/12 03:02:42;;;;;;;7.50;5.40;;;13.10;13.10;;;;;;5004360;28;34634;-77
2022/07/12 03:05:09;;;;;;;7.85;6.15;;;13.10;13.10;;;;;;5022498;28;35796;-77
2022/07/12 03:07:34;;;;;;;7.75;5.65;;;13.10;13.20;;;;;;5004164;28;34112;-77
2022/07/12 03:10:00;;;;;;;7.00;5.53;;;13.00;13.10;;;;;;5005781;27;34349;-77
2022/07/12 03:12:26;;;;;;;7.30;5.60;;;12.90;13.10;;;;;;5003605;28;34263;-77
2022/07/12 03:14:53;;;;;;;8.13;5.72;;;12.90;13.20;;;;;;5008345;28;35338;-77
2022/07/12 03:17:20;;;;;;;8.65;5.82;;;12.90;13.20;;;;;;5004981;28;34386;-77
2022/07/12 03:19:47;;;;;;;8.95;6.28;;;12.90;13.30;;;;;;5016909;28;34189;-78
2022/07/12 03:22:12;;;;;;;7.28;5.82;;;12.80;13.20;;;;;;5003244;28;34161;-77
2022/07/12 03:24:38;;;;;;;7.13;5.28;;;12.80;13.20;;;;;;4985639;28;36219;-77
2022/07/12 03:27:04;;;;;;;7.90;5.70;;;12.70;13.40;;;;;;5034521;27;34244;-77
2022/07/12 03:29:30;;;;;;;9.18;5.60;;;12.70;13.50;;;;;;4986350;28;34134;-78
2022/07/12 03:31:56;;;;;;;7.85;5.72;;;12.60;13.50;;;;;;5002888;28;34061;-77
2022/07/12 03:34:22;;;;;;;7.88;5.57;;;12.60;13.60;;;;;;4985070;28;35509;-77
2022/07/12 03:36:48;;;;;;;6.32;5.00;;;12.60;13.60;;;;;;5003102;28;34320;-77
2022/07/12 03:39:14;;;;;;;8.43;5.75;;;12.60;13.60;;;;;;5023558;28;34055;-77
2022/07/12 03:41:40;;;;;;;10.70;5.72;;;12.50;13.60;;;;;;5004318;28;34261;-77
2022/07/12 03:44:06;;;;;;;7.28;5.65;;;12.50;13.60;;;;;;5002628;28;34203;-76
2022/07/12 03:46:33;;;;;;;7.05;5.40;;;12.50;13.60;;;;;;5044935;27;34368;-77
2022/07/12 03:48:59;;;;;;;7.90;6.10;;;12.50;13.60;;;;;;5020812;28;34232;-77
2022/07/12 03:51:26;;;;;;;9.40;5.95;;;12.50;13.70;;;;;;5012848;28;34480;-77
2022/07/12 03:53:52;;;;;;;9.45;6.28;;;12.50;13.70;;;;;;5018136;28;34099;-77
2022/07/12 03:58:59;;;;;;;9.63;5.65;;;12.50;13.70;;;;;;5004657;28;34333;-77
2022/07/12 04:01:25;;;;;;;8.20;5.82;;;12.50;13.80;;;;;;5001135;28;34196;-77
2022/07/12 04:03:50;;;;;;;9.48;6.35;;;12.50;13.80;;;;;;4985040;28;35791;-77
2022/07/12 04:06:16;;;;;;;7.75;5.80;;;12.40;13.80;;;;;;5009439;28;34443;-77
2022/07/12 04:08:42;;;;;;;8.00;6.10;;;12.40;13.70;;;;;;4992961;28;34171;-77
2022/07/12 04:11:08;;;;;;;8.60;5.95;;;12.40;13.90;;;;;;5011485;28;34156;-77
2022/07/12 04:13:34;;;;;;;7.50;5.90;;;12.40;13.90;;;;;;5032659;28;35876;-77
2022/07/12 04:16:00;;;;;;;7.82;6.15;;;12.30;13.90;;;;;;5001187;28;34282;-77
2022/07/12 04:18:26;;;;;;;7.88;5.55;;;12.40;13.90;;;;;;5001033;28;34157;-77
2022/07/12 04:20:52;;;;;;;9.93;6.05;;;12.40;13.90;;;;;;5005766;28;34394;-77
2022/07/12 04:23:17;;;;;;;9.00;6.00;;;12.40;13.90;;;;;;5001498;28;34466;-77
2022/07/12 04:25:43;;;;;;;8.50;5.63;;;12.40;13.90;;;;;;5017419;28;34162;-77
2022/07/12 04:28:09;;;;;;;9.35;6.10;;;12.40;13.90;;;;;;5018072;28;34206;-77
2022/07/12 04:30:35;;;;;;;8.77;6.40;;;12.50;14.00;;;;;;5004294;28;34671;-77
2022/07/12 04:33:01;;;;;;;8.18;6.05;;;12.50;14.00;;;;;;5020102;28;36236;-77
2022/07/12 04:35:27;;;;;;;7.68;5.55;;;12.50;13.90;;;;;;5006148;28;34245;-77
2022/07/12 04:37:53;;;;;;;8.60;6.40;;;12.50;13.90;;;;;;5018283;28;34048;-77
2022/07/12 04:40:18;;;;;;;8.38;5.93;;;12.50;14.00;;;;;;5028423;28;34637;-77
2022/07/12 04:42:44;;;;;;;7.22;5.57;;;12.50;14.00;;;;;;4986641;28;36797;-76
2022/07/12 04:45:10;;;;;;;8.02;6.15;;;12.50;13.90;;;;;;5036774;28;35988;-77
2022/07/12 04:47:37;;;;;;;11.30;6.07;;;12.50;14.00;;;;;;5034932;28;34096;-77
2022/07/12 04:50:07;;;;;;;8.00;5.90;;;12.60;14.00;;;;;;5019173;28;34396;-77
2022/07/12 04:52:34;;;;;;;8.70;5.80;;;12.60;14.20;;;;;;5005437;28;35556;-77
2022/07/12 04:55:01;;;;;;;8.90;5.95;;;12.60;14.00;;;;;;5010353;28;34336;-76
2022/07/12 04:57:27;;;;;;;9.38;6.13;;;12.70;14.00;;;;;;5021966;28;34336;-77
2022/07/12 04:59:52;;;;;;;8.60;6.18;;;12.70;14.10;;;;;;5023266;28;34364;-76
2022/07/12 05:02:18;;;;;;;6.93;5.47;;;12.80;14.10;;;;;;5020302;27;36228;-77
2022/07/12 05:04:45;;;;;;;8.48;6.35;;;12.80;14.00;;;;;;5032416;28;34330;-77
2022/07/12 05:07:11;;;;;;;8.75;6.25;;;12.90;14.10;;;;;;5007513;28;34753;-77
2022/07/12 05:09:37;;;;;;;9.65;6.45;;;12.90;14.00;;;;;;5020089;28;34450;-77
2022/07/12 05:12:04;;;;;;;9.30;6.20;;;13.00;14.10;;;;;;5019978;28;35653;-76
2022/07/12 05:14:29;;;;;;;7.55;5.85;;;13.00;14.10;;;;;;5003831;28;34433;-76
2022/07/12 05:16:55;;;;;;;9.70;6.03;;;13.00;14.10;;;;;;5014251;28;34603;-76
2022/07/12 05:19:21;;;;;;;9.63;6.88;;;13.10;14.20;;;;;;5000746;28;34198;-77
2022/07/12 05:21:47;;;;;;;9.43;6.65;;;13.20;14.20;;;;;;5040138;28;34589;-77
2022/07/12 05:24:13;;;;;;;9.95;6.95;;;13.40;14.20;;;;;;5012608;27;34338;-77
2022/07/12 05:26:39;;;;;;;8.65;6.93;;;13.70;14.20;;;;;;5006952;28;34297;-76
2022/07/12 05:29:05;;;;;;;9.75;6.85;;;14.30;13.60;;;;;;4996032;28;34103;-77
2022/07/12 05:31:31;;;;;;;9.63;6.68;;;15.30;12.50;;;;;;5012767;28;35869;-76
2022/07/12 05:33:56;;;;;;;8.30;6.10;;;16.30;11.20;;;;;;5016808;27;34411;-77
2022/07/12 05:36:23;;;;;;;8.35;6.45;;;17.30;9.90;;;;;;5002530;28;34305;-77
2022/07/12 05:38:49;;;;;;;8.02;5.82;;;18.20;8.70;;;;;;5039669;27;34074;-77
2022/07/12 05:41:15;;;;;;;8.63;6.57;;;18.80;7.90;;;;;;5060974;28;36038;-77
2022/07/12 05:43:41;;;;;;;9.52;6.07;;;19.40;7.10;;;;;;5011939;28;34480;-77
2022/07/12 05:46:08;;;;;;;8.15;6.40;;;20.20;6.40;;;;;;5008153;28;34124;-77
2022/07/12 05:48:34;;;;;;;7.43;5.75;;;20.80;5.50;;;;;;5000315;28;34683;-77
2022/07/12 05:53:41;;;;;;;7.20;5.88;;;22.20;4.20;;;;;;5001644;28;34227;-77
2022/07/12 05:56:07;;;;;;;7.13;5.38;;;23.00;3.50;;;;;;4999739;28;34217;-77
2022/07/12 05:58:33;;;;;;;8.18;6.13;;;23.50;2.60;;;;;;5004596;28;34067;-77
2022/07/12 06:00:59;;;;;;;6.85;5.43;;;24.00;2.60;;;;;;5001231;28;34294;-76
2022/07/12 06:03:25;;;;;;;6.72;5.47;;;24.20;1.20;;;;;;5000007;28;34642;-77
2022/07/12 06:05:51;;;;;;;8.27;5.68;;;24.60;1.00;;;;;;4999581;28;34313;-77
2022/07/12 06:08:17;;;;;;;8.27;5.22;;;25.00;1.00;;;;;;5017702;28;34125;-77
2022/07/12 06:10:43;;;;;;;7.18;5.80;;;25.50;1.00;;;;;;5003694;28;35843;-77
2022/07/12 06:13:09;;;;;;;7.70;6.57;;;26.00;1.00;;;;;;5019471;28;34549;-77
2022/07/12 06:15:37;;;;;;;6.88;5.15;;;26.30;1.00;;;;;;5014737;28;34297;-76
2022/07/12 06:18:03;;;;;;;6.45;5.50;;;26.70;1.00;;;;;;5008778;28;34395;-76
2022/07/12 06:20:29;;;;;;;10.57;6.10;;;27.00;1.00;;;;;;5007826;28;34434;-77
2022/07/12 06:22:55;;;;;;;7.30;5.80;;;27.20;1.00;;;;;;5049726;28;34465;-77
2022/07/12 06:25:22;;;;;;;7.15;6.05;;;27.40;1.00;;;;;;5017027;28;34196;-77
2022/07/12 06:27:48;;;;;;;8.77;5.78;;;27.60;1.00;;;;;;5043886;27;35697;-77
2022/07/12 06:30:17;;;;;;;8.18;5.30;;;27.60;1.00;;;;;;5007719;28;35822;-77
2022/07/12 06:32:45;;;;;;;6.30;5.40;;;27.90;1.00;;;;;;5004387;28;34321;-77
2022/07/12 06:35:11;;;;;;;6.07;5.35;;;28.00;1.00;;;;;;5104674;27;34324;-77
2022/07/12 06:37:37;;;;;;;6.80;5.93;;;28.10;1.00;;;;;;5021356;28;34096;-77
2022/07/12 06:40:03;;;;;;;9.18;5.95;;;28.10;1.00;;;;;;4996835;28;36518;-77
2022/07/12 06:42:29;;;;;;;9.35;5.97;;;28.40;1.00;;;;;;5017715;28;34208;-77
2022/07/12 06:44:55;;;;;;;7.40;5.63;;;28.40;1.00;;;;;;4992210;28;34539;-77
2022/07/12 06:47:22;;;;;;;6.25;5.32;;;28.60;1.00;;;;;;5026374;28;34272;-77
2022/07/12 06:49:47;;;;;;;8.13;6.10;;;28.90;1.00;;;;;;5002016;28;35524;-77
2022/07/12 06:52:14;;;;;;;7.05;5.70;;;29.30;1.00;;;;;;5002736;28;34261;-76
2022/07/12 06:54:40;;;;;;;10.57;5.80;;;29.30;1.00;;;;;;5002866;28;34158;-77
2022/07/12 06:57:06;;;;;;;6.68;5.50;;;29.30;1.00;;;;;;5003120;28;34383;-77
2022/07/12 06:59:32;;;;;;;11.95;6.22;;;29.10;1.00;;;;;;4991123;28;34382;-77
2022/07/12 07:01:58;;;;;;;11.40;6.55;;;29.00;1.00;;;;;;5004062;28;34226;-78
2022/07/12 07:04:25;;;;;;;8.20;6.45;;;29.00;1.00;;;;;;5036560;28;34252;-77
2022/07/12 07:06:51;;;;;;;22.13;8.23;;;29.30;1.00;;;;;;5035907;28;34153;-77
2022/07/12 07:09:17;;;;;;;8.68;5.90;;;29.50;1.00;;;;;;4991117;28;34171;-77
2022/07/12 07:11:43;;;;;;;7.25;5.15;;;29.40;1.00;;;;;;4983405;28;34180;-77
2022/07/12 07:14:09;;;;;;;6.13;5.47;;;29.30;1.00;;;;;;4982804;28;34256;-77
2022/07/12 07:16:35;;;;;;;6.57;5.60;;;29.20;1.00;;;;;;4982531;28;34249;-77
2022/07/12 07:19:02;;;;;;;8.30;5.45;;;29.30;1.00;;;;;;4981964;28;35766;-77
2022/07/12 07:21:28;;;;;;;12.55;7.63;;;29.50;1.00;;;;;;4984821;28;34109;-78
2022/07/12 07:23:55;;;;;;;8.43;5.03;;;29.70;1.00;;;;;;5035400;28;34154;-77
2022/07/12 07:26:22;;;;;;;6.43;5.72;;;29.70;1.00;;;;;;5002281;28;34279;-78
2022/07/12 07:31:29;;;;;;;11.63;5.85;;;29.80;1.00;;;;;;5004143;28;34060;-79
2022/07/12 07:33:55;;;;;;;7.53;5.20;;;30.00;1.00;;;;;;5036073;28;34362;-77
2022/07/12 07:36:21;;;;;;;6.03;4.97;;;30.10;1.00;;;;;;5035195;28;34161;-78
2022/07/12 07:38:47;;;;;;;5.32;4.63;;;29.90;1.00;;;;;;4999655;28;35884;-77
2022/07/12 07:41:13;;;;;;;6.25;4.47;;;29.70;1.00;;;;;;5001053;28;34250;-77
2022/07/12 07:43:39;;;;;;;5.90;4.57;;;29.60;1.00;;;;;;5022673;28;34583;-78
2022/07/12 07:46:05;;;;;;;5.53;4.70;;;29.70;1.00;;;;;;5005903;28;34254;-77
2022/07/12 07:48:31;;;;;;;5.35;4.47;;;29.70;1.00;;;;;;5021606;28;34374;-77
2022/07/12 07:50:56;;;;;;;5.47;4.10;;;29.70;1.00;;;;;;5012025;28;34345;-77
2022/07/12 07:53:25;;;;;;;4.22;3.83;;;29.50;1.00;;;;;;5011909;28;34127;-77
2022/07/12 07:55:51;;;;;;;6.07;4.22;;;29.50;1.00;;;;;;5021966;28;34394;-77
2022/07/12 07:58:17;;;;;;;4.60;4.15;;;29.50;1.00;;;;;;5004928;28;36090;-77
2022/07/12 08:00:42;;;;;;;4.72;3.65;;;29.50;1.00;;;;;;5020887;28;34095;-77
2022/07/12 08:03:08;;;;;;;4.20;3.45;;;29.70;1.00;;;;;;5018150;28;34377;-77
2022/07/12 08:05:34;;;;;;;4.00;3.40;;;29.70;1.00;;;;;;5051747;28;34558;-77
2022/07/12 08:08:00;;;;;;;4.00;3.60;;;29.70;1.00;;;;;;5034559;28;34274;-79
2022/07/12 08:10:26;;;;;;;4.38;3.17;;;29.80;1.00;;;;;;5017484;28;34166;-77
2022/07/12 08:12:52;;;;;;;4.07;3.65;;;29.90;1.00;;;;;;5035886;27;34144;-77
2022/07/12 08:15:18;;;;;;;4.78;3.17;;;30.00;1.00;;;;;;5022983;28;34444;-78
2022/07/12 08:17:44;;;;;;;3.60;3.30;;;30.10;1.00;;;;;;5022871;28;36439;-77
2022/07/12 08:20:10;;;;;;;2.92;2.72;;;30.30;1.00;;;;;;5004842;28;34163;-78
2022/07/12 08:22:44;;;;;;;3.30;2.90;;;30.40;1.00;;;;;;5017999;28;34187;-78
2022/07/12 08:25:11;;;;;;;3.65;2.80;;;30.50;1.00;;;;;;5004840;28;34092;-78
2022/07/12 08:27:37;;;;;;;6.95;3.30;;;30.40;1.00;;;;;;5020693;28;36245;-78
2022/07/12 08:30:03;;;;;;;3.25;2.95;;;30.40;1.00;;;;;;5020647;28;34348;-77
2022/07/12 08:32:29;;;;;;;4.70;3.40;;;30.20;1.00;;;;;;5021352;28;34329;-77
2022/07/12 08:34:55;;;;;;;3.53;3.20;;;30.30;1.00;;;;;;5020675;28;34492;-78
2022/07/12 08:37:21;;;;;;;3.20;2.90;;;30.40;1.00;;;;;;5051721;28;35787;-78
2022/07/12 08:39:47;;;;;;;3.10;2.80;;;30.60;1.00;;;;;;5019984;28;34090;-77
2022/07/12 08:42:16;;;;;;;5.93;2.90;;;30.80;1.00;;;;;;5055266;28;34131;-78
2022/07/12 08:44:43;;;;;;;3.20;2.90;;;30.90;1.00;;;;;;5004954;28;34531;-78
2022/07/12 08:47:09;;;;;;;5.93;2.72;;;31.10;1.00;;;;;;5005550;28;35710;-78
2022/07/12 08:49:37;;;;;;;3.35;2.58;;;31.00;1.00;;;;;;5004646;28;34309;-78
2022/07/12 08:52:25;;;;;;;2.65;2.20;;;31.00;1.00;;;;;;5014990;28;34582;-78
2022/07/12 08:54:51;;;;;;;3.50;2.58;;;31.20;1.00;;;;;;5027751;28;34407;-78
2022/07/12 08:57:32;;;;;;;3.30;3.00;;;31.30;1.00;;;;;;5018484;28;35751;-77
2022/07/12 09:00:00;;;;;;;2.70;2.50;;;31.10;1.00;;;;;;5021379;28;34450;-77
2022/07/12 09:02:27;;;;;;;2.50;2.30;;;31.10;1.00;;;;;;5022599;28;34251;-78
2022/07/12 09:05:09;;;;;;;2.80;2.25;;;31.20;1.00;;;;;;5006467;28;34061;-77
2022/07/12 09:07:36;;;;;;;2.53;2.33;;;31.40;1.00;;;;;;5021423;28;35757;-78
2022/07/12 09:10:05;;;;;;;2.50;2.30;;;31.40;1.00;;;;;;5021645;28;34210;-78
2022/07/12 09:12:34;;;;;;;2.95;2.70;;;31.60;1.00;;;;;;5020647;28;34434;-77
2022/07/12 09:15:15;;;;;;;3.00;2.60;;;31.70;1.00;;;;;;5015614;28;34607;-78
2022/07/12 09:17:54;;;;;;;2.28;2.08;;;31.90;1.00;;;;;;5003651;28;35652;-77
2022/07/12 09:20:19;;;;;;;2.45;2.25;;;31.80;1.00;;;;;;5020642;28;34079;-78
2022/07/12 09:22:55;;;;;;;2.30;2.10;;;31.80;1.00;;;;;;5026886;28;34090;-78
2022/07/12 09:25:21;;;;;;;4.22;3.25;;;31.90;1.00;;;;;;5021377;28;34411;-78
2022/07/12 09:27:53;;;;;;;2.63;2.20;;;31.70;1.00;;;;;;5014811;28;34270;-78
2022/07/12 09:30:23;;;;;;;2.15;1.95;;;31.80;1.00;;;;;;5022535;27;34557;-79
2022/07/12 09:38:14;;;;;;;3.20;2.20;;;32.00;1.00;;;;;;5015520;28;34111;-79
2022/07/12 09:40:41;;;;;;;3.88;2.00;;;32.00;1.00;;;;;;5017450;28;33675;-78
2022/07/12 09:43:07;;;;;;;2.10;1.90;;;31.80;1.00;;;;;;5036351;28;34261;-78
2022/07/12 09:45:34;;;;;;;2.97;2.10;;;31.70;1.00;;;;;;5023253;28;34427;-77
2022/07/12 09:48:02;;;;;;;2.58;2.38;;;31.80;1.00;;;;;;5042325;28;34865;-78
2022/07/12 09:50:30;;;;;;;1.90;1.80;;;32.00;1.00;;;;;;5024113;28;34129;-78
2022/07/12 09:52:59;;;;;;;2.00;1.80;;;32.00;1.00;;;;;;5024779;28;34296;-77
2022/07/12 09:55:28;;;;;;;1.92;1.83;;;32.00;1.00;;;;;;4992167;28;34452;-77
2022/07/12 09:57:56;;;;;;;2.33;2.13;;;31.90;1.00;;;;;;5002574;28;36059;-77
2022/07/12 10:00:23;;;;;;;1.77;1.65;;;32.10;1.00;;;;;;5015018;28;34167;-78
2022/07/12 10:02:52;;;;;;;2.13;1.92;;;32.20;1.00;;;;;;5107979;27;34124;-78
2022/07/12 10:05:20;;;;;;;2.15;1.95;;;32.30;1.00;;;;;;5107630;27;34105;-77
2022/07/12 10:07:46;;;;;;;2.28;1.98;;;32.30;1.00;;;;;;5004769;28;36007;-79
2022/07/12 10:10:12;;;;;;;1.92;1.73;;;32.20;1.00;;;;;;5011831;28;34336;-78
2022/07/12 10:12:40;;;;;;;2.85;1.67;;;32.10;1.00;;;;;;5033171;28;34076;-78
2022/07/12 10:15:14;;;;;;;1.88;1.77;;;32.10;1.00;;;;;;5033210;27;34490;-79
2022/07/12 10:17:44;;;;;;;8.15;2.88;;;32.20;1.00;;;;;;5043922;27;35909;-78
2022/07/12 10:20:22;;;;;;;2.45;2.10;;;32.20;1.00;;;;;;5020630;28;34133;-77
2022/07/12 10:22:48;;;;;;;2.47;1.58;;;32.20;1.00;;;;;;5047644;28;34094;-77
2022/07/12 10:25:31;;;;;;;1.90;1.80;;;32.20;1.00;;;;;;5022504;27;34215;-77
2022/07/12 10:27:58;;;;;;;1.70;1.60;;;32.00;1.00;;;;;;5044965;27;35679;-79
2022/07/12 10:30:25;;;;;;;2.92;1.70;;;31.80;1.00;;;;;;5042031;28;34275;-77
2022/07/12 10:32:53;;;;;;;2.47;1.50;;;31.90;1.00;;;;;;5023560;28;34413;-77
2022/07/12 10:35:23;;;;;;;1.88;1.70;;;32.00;1.00;;;;;;5003070;28;34475;-78
2022/07/12 10:38:18;;;;;;;1.92;1.73;;;32.20;1.00;;;;;;5008616;28;36308;-78
2022/07/12 10:40:46;;;;;;;1.95;1.60;;;32.60;1.00;;;;;;5061718;28;34175;-77
2022/07/12 10:43:15;;;;;;;2.00;1.13;;;32.70;1.00;;;;;;4993139;28;34155;-79
2022/07/12 10:45:43;;;;;;;1.35;1.25;;;32.80;1.00;;;;;;5033449;28;34159;-77
2022/07/12 10:48:22;;;;;;;1.60;1.50;;;32.80;1.00;;;;;;4983932;28;36306;-78
2022/07/12 10:50:57;;;;;;;1.70;1.40;;;33.00;1.00;;;;;;4983556;28;34197;-77
2022/07/12 10:53:25;;;;;;;1.40;1.30;;;33.00;1.00;;;;;;5000483;28;34421;-77
2022/07/12 10:56:09;;;;;;;3.83;1.42;;;33.10;1.00;;;;;;4996998;28;34446;-78
2022/07/12 10:58:41;;;;;;;1.88;1.65;;;33.20;1.00;;;;;;5003257;28;36421;-78
2022/07/12 11:01:11;;;;;;;1.58;1.48;;;33.20;1.00;;;;;;5045971;28;34027;-79
2022/07/12 11:03:40;;;;;;;1.92;1.20;;;33.30;1.00;;;;;;5002455;28;34365;-77
2022/07/12 11:06:08;;;;;;;1.30;1.20;;;33.30;1.00;;;;;;5000388;28;34525;-78
2022/07/12 11:08:51;;;;;;;1.48;1.35;;;33.50;1.00;;;;;;5012389;28;36403;-80
2022/07/12 11:11:18;;;;;;;1.70;1.60;;;33.60;1.00;;;;;;5000805;28;34275;-77
2022/07/12 11:13:44;;;;;;;1.23;1.20;;;33.70;1.00;;;;;;5025751;28;34427;-78
2022/07/12 11:16:29;;;;;;;1.60;1.50;;;33.70;1.00;;;;;;4970769;28;34018;-78
2022/07/12 11:18:55;;;;;;;1.23;1.13;;;33.70;1.00;;;;;;5027598;28;35825;-81
2022/07/12 11:21:23;;;;;;;2.28;1.30;;;33.60;1.00;;;;;;5003140;28;34414;-81
2022/07/12 11:23:50;;;;;;;1.67;1.30;;;33.50;1.00;;;;;;4986924;28;34175;-78
2022/07/12 11:26:16;;;;;;;1.33;1.23;;;33.60;1.00;;;;;;5002904;28;34095;-77
2022/07/12 11:28:44;;;;;;;1.30;1.20;;;33.60;1.00;;;;;;5022485;28;35943;-77
2022/07/12 11:31:15;;;;;;;1.38;1.27;;;33.60;1.00;;;;;;4997885;28;34251;-78
2022/07/12 11:33:44;;;;;;;1.00;1.00;;;33.60;1.00;;;;;;4984255;28;34161;-78
2022/07/12 11:36:12;;;;;;;1.20;1.10;;;33.50;1.00;;;;;;5001048;28;34092;-78
2022/07/12 11:38:40;;;;;;;1.83;1.20;;;33.50;1.00;;;;;;4998243;28;36764;-78
2022/07/12 11:41:08;;;;;;;2.53;1.00;;;33.40;1.00;;;;;;4998549;27;34547;-79
2022/07/12 11:43:36;;;;;;;0.95;0.95;;;33.40;1.00;;;;;;5108288;27;34492;-78
2022/07/12 11:46:04;;;;;;;1.23;0.80;;;33.60;1.00;;;;;;5033939;28;34063;-77
2022/07/12 11:48:32;;;;;;;0.60;0.60;;;33.70;1.00;;;;;;5075356;27;34433;-79
2022/07/12 11:51:03;;;;;;;0.80;0.80;;;33.80;1.00;;;;;;5027134;27;34221;-80
2022/07/12 11:53:31;;;;;;;0.93;0.93;;;33.90;1.00;;;;;;5033605;28;34298;-79
2022/07/12 11:55:58;;;;;;;1.33;0.82;;;34.00;1.00;;;;;;5040236;27;34117;-77
2022/07/12 11:58:25;;;;;;;0.95;0.70;;;34.00;1.00;;;;;;5062191;27;34983;-77
2022/07/12 12:00:53;;;;;;;0.63;0.63;;;34.10;1.00;;;;;;5075737;27;34257;-81
2022/07/12 12:03:22;;;;;;;0.70;0.70;;;34.10;1.00;;;;;;5007066;28;34277;-78
2022/07/12 12:05:51;;;;;;;1.20;0.80;;;34.10;1.00;;;;;;5020646;28;34146;-77
2022/07/12 12:08:18;;;;;;;1.95;0.73;;;34.10;1.00;;;;;;5025302;28;36445;-78
2022/07/12 12:10:57;;;;;;;0.75;0.75;;;34.10;1.00;;;;;;5033368;28;34449;-77
2022/07/12 12:13:24;;;;;;;0.75;0.75;;;34.10;1.00;;;;;;5035825;28;34346;-79
2022/07/12 12:15:54;;;;;;;0.80;0.80;;;34.20;1.00;;;;;;5008844;28;34448;-76
2022/07/12 12:18:37;;;;;;;0.80;0.75;;;34.20;1.00;;;;;;5003416;28;35839;-76
2022/07/12 12:21:08;;;;;;;0.70;0.70;;;34.00;1.00;;;;;;5015370;28;34096;-78
2022/07/12 12:23:36;;;;;;;0.70;0.70;;;33.80;1.00;;;;;;5033990;28;34107;-79
2022/07/12 12:26:12;;;;;;;1.60;0.93;;;33.80;1.00;;;;;;5025110;28;34213;-77
2022/07/12 12:28:45;;;;;;;0.70;0.70;;;33.90;1.00;;;;;;5019016;27;35682;-78
2022/07/12 12:31:13;;;;;;;0.80;0.80;;;33.80;1.00;;;;;;5064134;27;35518;-77
2022/07/12 12:33:42;;;;;;;0.70;0.70;;;33.60;1.00;;;;;;5084444;27;34297;-77
2022/07/12 12:36:24;;;;;;;1.10;0.77;;;33.50;1.00;;;;;;5099860;27;34539;-77
2022/07/12 12:38:52;;;;;;;0.93;0.90;;;33.60;1.00;;;;;;5090596;27;35686;-80
2022/07/12 12:41:22;;;;;;;0.95;0.80;;;33.80;1.00;;;;;;5041003;27;34378;-77
2022/07/12 12:43:56;;;;;;;2.85;0.60;;;33.90;1.00;;;;;;5005351;28;34447;-78
2022/07/12 12:46:22;;;;;;;0.95;0.70;;;33.90;1.00;;;;;;5039207;28;34083;-79
2022/07/12 12:48:48;;;;;;;0.68;0.68;;;33.80;1.00;;;;;;5015296;28;35759;-79
2022/07/12 12:51:15;;;;;;;0.93;0.77;;;33.90;1.00;;;;;;5026263;28;34135;-80
2022/07/12 12:53:42;;;;;;;0.65;0.65;;;33.80;1.00;;;;;;5044401;27;34225;-77
2022/07/12 12:56:11;;;;;;;0.70;0.70;;;33.90;1.00;;;;;;5005846;28;34267;-78
2022/07/12 12:58:38;;;;;;;1.15;0.77;;;34.00;1.00;;;;;;5040946;28;34131;-79
2022/07/12 13:01:05;;;;;;;1.20;0.80;;;34.00;1.00;;;;;;5042212;28;34249;-78
2022/07/12 13:03:32;;;;;;;0.50;0.50;;;34.00;1.00;;;;;;5048451;27;34323;-78
2022/07/12 13:05:58;;;;;;;0.70;0.60;;;34.10;1.00;;;;;;5029563;27;34639;-77
2022/07/12 13:08:25;;;;;;;2.35;0.68;;;34.10;1.00;;;;;;5036628;28;36499;-77
2022/07/12 13:16:55;;;;;;;1.77;0.57;;;34.40;1.00;;;;;;5031729;28;34170;-77
2022/07/12 13:19:21;;;;;;;0.82;0.60;;;34.40;1.00;;;;;;5024010;28;36526;-80